createdAt,value
2022-08-17T00:00:43.402Z,8.47
2022-08-17T00:03:22.765Z,7.93
2022-08-17T00:05:54.555Z,8.00
2022-08-17T00:08:29.607Z,7.50
2022-08-17T00:10:59.244Z,8.60
2022-08-17T00:13:50.492Z,7.72
2022-08-17T00:16:55.598Z,7.88
2022-08-17T00:19:23.389Z,10.85
2022-08-17T00:22:29.463Z,8.48
2022-08-17T00:24:48.585Z,8.25
2022-08-17T00:27:23.643Z,9.57
2022-08-17T00:29:53.312Z,7.88
2022-08-17T00:33:13.956Z,8.03
2022-08-17T00:35:18.706Z,9.02
2022-08-17T00:37:48.111Z,8.73
2022-08-17T00:40:19.676Z,8.10
2022-08-17T00:42:54.128Z,8.37
2022-08-17T00:45:27.731Z,10.45
2022-08-17T00:47:57.004Z,8.90
2022-08-17T00:50:28.688Z,8.38
2022-08-17T00:52:59.778Z,7.95
2022-08-17T00:55:31.733Z,8.13
2022-08-17T00:58:05.535Z,8.95
2022-08-17T01:00:42.867Z,9.40
2022-08-17T01:03:22.582Z,9.55
2022-08-17T01:05:57.027Z,8.93
2022-08-17T01:08:40.531Z,8.60
2022-08-17T01:11:10.948Z,10.18
2022-08-17T01:13:43.947Z,9.75
2022-08-17T01:16:18.519Z,10.20
2022-08-17T01:18:51.397Z,9.43
2022-08-17T01:21:32.592Z,10.63
2022-08-17T01:24:04.545Z,10.33
2022-08-17T01:26:36.045Z,9.40
2022-08-17T01:29:06.661Z,9.10
2022-08-17T01:31:41.932Z,9.30
2022-08-17T01:34:14.938Z,10.07
2022-08-17T01:36:47.215Z,9.53
2022-08-17T01:39:23.346Z,9.03
2022-08-17T01:41:58.265Z,10.00
2022-08-17T01:44:35.151Z,10.43
2022-08-17T01:47:08.230Z,9.97
2022-08-17T01:49:39.939Z,10.20
2022-08-17T01:52:11.524Z,10.23
2022-08-17T01:54:49.166Z,11.03
2022-08-17T01:57:18.438Z,10.63
2022-08-17T01:59:52.067Z,11.20
2022-08-17T02:02:30.538Z,11.40
2022-08-17T02:05:00.809Z,11.60
2022-08-17T02:07:30.691Z,11.60
2022-08-17T02:10:06.579Z,14.70
2022-08-17T02:12:52.149Z,10.90
2022-08-17T02:15:25.299Z,11.73
2022-08-17T02:17:55.013Z,11.97
2022-08-17T02:20:41.574Z,11.40
2022-08-17T02:23:13.423Z,12.30
2022-08-17T02:25:47.995Z,12.03
2022-08-17T02:28:17.698Z,12.90
2022-08-17T02:31:01.726Z,12.87
2022-08-17T02:33:41.593Z,12.63
2022-08-17T02:36:14.170Z,12.53
2022-08-17T02:38:47.184Z,12.80
2022-08-17T02:41:20.766Z,12.77
2022-08-17T02:43:50.047Z,11.73
2022-08-17T02:46:19.815Z,13.70
2022-08-17T02:48:48.992Z,12.53
2022-08-17T02:51:18.257Z,12.50
2022-08-17T02:53:47.901Z,12.73
2022-08-17T02:56:21.023Z,12.20
2022-08-17T02:58:50.668Z,13.53
2022-08-17T03:01:23.818Z,12.40
2022-08-17T03:03:53.672Z,13.00
2022-08-17T03:06:23.002Z,14.10
2022-08-17T03:08:52.841Z,14.23
2022-08-17T03:11:25.487Z,14.60
2022-08-17T03:13:54.884Z,14.40
2022-08-17T03:16:24.405Z,15.63
2022-08-17T03:18:54.531Z,16.43
2022-08-17T03:21:26.331Z,16.73
2022-08-17T03:23:55.732Z,16.87
2022-08-17T03:26:29.649Z,17.23
2022-08-17T03:28:59.226Z,16.47
2022-08-17T03:31:28.886Z,17.60
2022-08-17T03:34:07.514Z,15.00
2022-08-17T03:36:36.787Z,17.00
2022-08-17T03:39:09.186Z,15.30
2022-08-17T03:41:40.633Z,17.57
2022-08-17T03:44:11.718Z,18.33
2022-08-17T03:46:58.032Z,18.63
2022-08-17T03:49:46.762Z,17.90
2022-08-17T03:52:33.082Z,18.20
2022-08-17T03:55:22.185Z,18.03
2022-08-17T03:58:06.811Z,16.67
2022-08-17T04:00:39.758Z,16.70
2022-08-17T04:03:10.778Z,16.97
2022-08-17T04:05:43.075Z,17.63
2022-08-17T04:08:12.343Z,17.10
2022-08-17T04:10:45.135Z,19.07
2022-08-17T04:13:16.425Z,18.90
2022-08-17T04:15:55.077Z,18.37
2022-08-17T04:18:24.350Z,18.27
2022-08-17T04:20:53.667Z,17.33
2022-08-17T04:23:23.276Z,18.90
2022-08-17T04:25:53.519Z,18.43
2022-08-17T04:28:24.240Z,19.47
2022-08-17T04:30:56.170Z,17.73
2022-08-17T04:33:33.248Z,19.40
2022-08-17T04:36:04.576Z,20.73
2022-08-17T04:38:40.696Z,18.77
2022-08-17T04:41:28.217Z,19.40
2022-08-17T04:44:01.706Z,20.17
2022-08-17T04:46:35.542Z,20.00
2022-08-17T04:49:10.719Z,19.83
2022-08-17T04:51:49.668Z,19.70
2022-08-17T04:54:26.189Z,18.67
2022-08-17T04:57:02.921Z,20.23
2022-08-17T04:59:36.525Z,18.70
2022-08-17T05:02:10.029Z,19.57
2022-08-17T05:04:42.184Z,20.20
2022-08-17T05:07:12.642Z,20.03
2022-08-17T05:09:42.052Z,20.10
2022-08-17T05:12:11.470Z,20.33
2022-08-17T05:14:42.773Z,20.50
2022-08-17T05:17:12.418Z,20.27
2022-08-17T05:19:42.187Z,20.20
2022-08-17T05:22:19.023Z,20.47
2022-08-17T05:24:53.577Z,17.20
2022-08-17T05:27:26.913Z,17.73
2022-08-17T05:30:05.492Z,18.77
2022-08-17T05:32:40.193Z,17.13
2022-08-17T05:35:14.717Z,19.13
2022-08-17T05:37:45.562Z,18.70
2022-08-17T05:40:18.916Z,17.47
2022-08-17T05:42:48.928Z,19.77
2022-08-17T05:45:54.397Z,17.77
2022-08-17T05:48:16.774Z,19.70
2022-08-17T05:50:55.176Z,16.33
2022-08-17T05:53:35.701Z,18.80
2022-08-17T05:56:27.939Z,18.97
2022-08-17T05:59:11.624Z,17.08
2022-08-17T06:01:50.754Z,18.60
2022-08-17T06:04:32.991Z,16.98
2022-08-17T06:07:08.990Z,16.55
2022-08-17T06:09:44.998Z,15.25
2022-08-17T06:12:36.363Z,18.38
2022-08-17T06:15:26.640Z,15.70
2022-08-17T06:18:05.279Z,15.77
2022-08-17T06:20:42.727Z,16.92
2022-08-17T06:23:19.449Z,14.95
2022-08-17T06:25:57.010Z,14.60
2022-08-17T06:28:35.424Z,16.42
2022-08-17T06:31:14.544Z,13.52
2022-08-17T06:33:48.481Z,16.10
2022-08-17T06:36:48.637Z,12.63
2022-08-17T06:39:35.265Z,12.90
2022-08-17T06:43:02.054Z,12.25
2022-08-17T06:45:17.674Z,10.57
2022-08-17T06:47:53.204Z,9.38
2022-08-17T06:50:30.644Z,9.05
2022-08-17T06:53:05.200Z,9.32
2022-08-17T06:55:46.874Z,9.93
2022-08-17T06:58:29.659Z,8.65
2022-08-17T07:01:01.887Z,10.10
2022-08-17T07:03:38.144Z,8.00
2022-08-17T07:06:17.458Z,8.50
2022-08-17T07:08:55.741Z,7.97
2022-08-17T07:11:31.858Z,6.75
2022-08-17T07:14:23.591Z,9.75
2022-08-17T07:16:58.876Z,7.15
2022-08-17T07:19:40.987Z,8.57
2022-08-17T07:22:26.243Z,11.00
2022-08-17T07:25:03.318Z,5.55
2022-08-17T07:27:38.601Z,5.50
2022-08-17T07:30:16.065Z,7.32
2022-08-17T07:32:51.106Z,19.15
2022-08-17T07:35:40.922Z,13.48
2022-08-17T07:38:25.967Z,7.43
2022-08-17T07:41:05.497Z,8.75
2022-08-17T07:43:43.304Z,11.43
2022-08-17T07:46:37.657Z,5.93
2022-08-17T07:49:26.378Z,6.57
2022-08-17T07:52:13.383Z,5.82
2022-08-17T07:54:52.323Z,8.00
2022-08-17T07:57:40.435Z,9.02
2022-08-17T08:00:31.663Z,10.55
2022-08-17T08:03:16.916Z,6.97
2022-08-17T08:05:58.202Z,8.15
2022-08-17T08:08:30.955Z,11.55
2022-08-17T08:11:19.451Z,5.47
2022-08-17T08:25:33.138Z,10.13
2022-08-17T08:28:20.463Z,6.30
2022-08-17T08:30:55.376Z,11.15
2022-08-17T08:33:44.680Z,7.90
2022-08-17T08:37:14.337Z,16.08
2022-08-17T08:39:23.681Z,7.60
2022-08-17T08:42:03.649Z,7.97
2022-08-17T08:45:01.176Z,9.13
2022-08-17T08:47:53.749Z,6.03
2022-08-17T08:50:40.123Z,7.65
2022-08-17T08:53:22.519Z,8.23
2022-08-17T08:55:56.132Z,8.40
2022-08-17T08:58:41.896Z,11.00
2022-08-17T09:01:25.217Z,9.60
2022-08-17T09:04:26.105Z,10.82
2022-08-17T09:07:14.456Z,8.35
2022-08-17T09:09:59.518Z,19.70
2022-08-17T09:12:38.591Z,11.00
2022-08-17T09:15:21.211Z,11.88
2022-08-17T09:18:58.928Z,11.02
2022-08-17T09:20:54.722Z,8.18
2022-08-17T09:23:32.837Z,14.27
2022-08-17T09:26:23.251Z,12.15
2022-08-17T09:28:58.647Z,12.05
2022-08-17T09:31:48.690Z,6.20
2022-08-17T09:34:33.154Z,7.47
2022-08-17T09:37:17.784Z,9.98
2022-08-17T09:40:00.627Z,14.90
2022-08-17T09:42:37.905Z,20.13
2022-08-17T09:45:24.224Z,13.35
2022-08-17T09:48:00.217Z,7.53
2022-08-17T09:51:03.507Z,8.55
2022-08-17T09:53:33.249Z,7.57
2022-08-17T09:56:24.475Z,8.88
2022-08-17T09:59:17.347Z,7.72
2022-08-17T10:01:55.446Z,4.85
2022-08-17T10:04:39.970Z,7.25
2022-08-17T10:07:23.105Z,13.30
2022-08-17T10:10:09.652Z,7.97
2022-08-17T10:12:55.499Z,7.82
2022-08-17T10:15:51.885Z,8.88
2022-08-17T10:18:32.030Z,10.93
2022-08-17T10:21:26.415Z,9.20
2022-08-17T10:24:23.998Z,15.18
2022-08-17T10:26:57.432Z,7.85
2022-08-17T10:29:31.348Z,14.70
2022-08-17T10:32:25.963Z,6.72
2022-08-17T10:35:20.557Z,9.57
2022-08-17T10:38:08.075Z,10.27
2022-08-17T10:40:47.196Z,7.85
2022-08-17T10:43:34.163Z,8.20
2022-08-17T10:46:31.371Z,9.05
2022-08-17T10:49:34.979Z,12.13
2022-08-17T10:52:27.042Z,8.68
2022-08-17T10:55:14.682Z,8.45
2022-08-17T10:57:52.747Z,6.53
2022-08-17T11:01:05.035Z,8.55
2022-08-17T11:03:38.833Z,12.80
2022-08-17T11:06:28.978Z,9.80
2022-08-17T11:09:24.692Z,8.15
2022-08-17T11:12:20.118Z,15.70
2022-08-17T11:15:12.071Z,7.85
2022-08-17T11:18:24.068Z,14.90
2022-08-17T11:21:32.352Z,9.25
2022-08-17T11:24:15.321Z,14.55
2022-08-17T11:26:49.283Z,10.70
2022-08-17T11:29:36.205Z,11.20
2022-08-17T11:32:36.116Z,14.40
2022-08-17T11:35:16.287Z,16.88
2022-08-17T11:37:55.768Z,13.20
2022-08-17T11:41:11.614Z,14.73
2022-08-17T11:44:31.906Z,14.52
2022-08-17T11:47:32.874Z,11.70
2022-08-17T11:50:57.597Z,15.48
2022-08-17T11:54:21.557Z,13.73
2022-08-17T11:56:51.962Z,16.52
2022-08-17T11:59:53.875Z,16.45
2022-08-17T12:02:48.170Z,15.77
2022-08-17T12:05:36.126Z,17.50
2022-08-17T12:08:18.009Z,16.58
2022-08-17T12:11:55.461Z,21.33
2022-08-17T12:14:20.146Z,15.40
2022-08-17T12:17:02.662Z,17.00
2022-08-17T12:19:36.131Z,16.10
2022-08-17T12:22:15.263Z,15.40
2022-08-17T12:25:04.260Z,17.83
2022-08-17T12:27:47.775Z,19.83
2022-08-17T12:30:28.592Z,15.48
2022-08-17T12:33:03.021Z,13.85
2022-08-17T12:35:37.119Z,15.40
2022-08-17T12:38:32.056Z,14.57
2022-08-17T12:41:21.386Z,19.20
2022-08-17T12:44:02.592Z,21.23
2022-08-17T12:46:48.442Z,16.30
2022-08-17T12:49:26.202Z,16.55
2022-08-17T12:52:04.731Z,21.63
2022-08-17T12:54:51.654Z,16.98
2022-08-17T12:57:24.063Z,19.60
2022-08-17T12:59:59.588Z,17.88
2022-08-17T13:02:45.443Z,13.93
2022-08-17T13:05:25.493Z,15.93
2022-08-17T13:08:03.802Z,16.65
2022-08-17T13:10:35.832Z,20.08
2022-08-17T13:13:19.620Z,20.25
2022-08-17T13:15:57.426Z,16.63
2022-08-17T13:18:40.158Z,14.07
2022-08-17T13:21:19.156Z,17.73
2022-08-17T13:24:06.562Z,15.32
2022-08-17T13:26:42.568Z,17.10
2022-08-17T13:29:24.443Z,18.55
2022-08-17T13:32:11.610Z,15.35
2022-08-17T13:35:12.622Z,17.30
2022-08-17T13:37:40.685Z,19.73
2022-08-17T13:40:39.824Z,19.83
2022-08-17T13:43:12.617Z,20.23
2022-08-17T13:46:02.013Z,22.23
2022-08-17T13:48:32.854Z,19.55
2022-08-17T13:51:34.816Z,23.15
2022-08-17T13:54:20.888Z,25.85
2022-08-17T13:57:11.754Z,25.10
2022-08-17T13:59:54.171Z,26.35
2022-08-17T14:02:28.783Z,30.15
2022-08-17T14:05:00.961Z,27.00
2022-08-17T14:07:36.368Z,25.95
2022-08-17T14:10:16.692Z,27.27
2022-08-17T14:12:53.528Z,26.98
2022-08-17T14:15:54.634Z,32.65
2022-08-17T14:18:18.128Z,25.83
2022-08-17T14:21:13.230Z,23.23
2022-08-17T14:23:49.025Z,23.48
2022-08-17T14:26:24.160Z,23.27
2022-08-17T14:28:56.794Z,25.85
2022-08-17T14:31:31.869Z,25.17
2022-08-17T14:34:03.634Z,25.23
2022-08-17T14:36:33.518Z,24.40
2022-08-17T14:39:14.672Z,20.85
2022-08-17T14:41:47.088Z,21.38
2022-08-17T14:44:23.190Z,23.65
2022-08-17T14:46:55.717Z,25.45
2022-08-17T14:49:30.643Z,24.85
2022-08-17T14:52:01.754Z,25.30
2022-08-17T14:54:34.687Z,22.10
2022-08-17T14:57:25.778Z,24.52
2022-08-17T15:00:00.449Z,21.85
2022-08-17T15:02:32.224Z,23.63
2022-08-17T15:05:04.372Z,21.80
2022-08-17T15:07:36.435Z,26.30
2022-08-17T15:10:09.906Z,27.00
2022-08-17T15:12:47.263Z,26.70
2022-08-17T15:15:23.270Z,26.85
2022-08-17T15:17:52.886Z,27.17
2022-08-17T15:20:30.670Z,26.95
2022-08-17T15:23:10.287Z,27.05
2022-08-17T15:25:42.439Z,26.35
2022-08-17T15:28:12.438Z,26.67
2022-08-17T15:30:46.049Z,21.73
2022-08-17T15:33:21.683Z,28.58
2022-08-17T15:35:54.945Z,26.80
2022-08-17T15:38:26.620Z,27.60
2022-08-17T15:41:02.612Z,28.30
2022-08-17T15:43:34.457Z,26.00
2022-08-17T15:46:12.220Z,27.58
2022-08-17T15:48:44.030Z,33.47
2022-08-17T15:51:17.758Z,28.85
2022-08-17T15:53:53.990Z,32.58
2022-08-17T15:56:31.666Z,29.33
2022-08-17T15:59:05.032Z,30.00
2022-08-17T16:03:14.979Z,28.33
2022-08-17T16:04:44.109Z,27.92
2022-08-17T16:07:15.002Z,29.17
2022-08-17T16:09:47.292Z,27.95
2022-08-17T16:12:23.281Z,28.98
2022-08-17T16:14:59.888Z,24.67
2022-08-17T16:17:39.762Z,26.75
2022-08-17T16:20:20.541Z,31.15
2022-08-17T16:22:55.236Z,28.33
2022-08-17T16:25:53.268Z,32.95
2022-08-17T16:28:36.032Z,28.55
2022-08-17T16:31:09.445Z,30.30
2022-08-17T16:33:41.553Z,25.77
2022-08-17T16:36:17.062Z,29.23
2022-08-17T16:38:48.394Z,26.42
2022-08-17T16:41:32.910Z,31.05
2022-08-17T16:44:02.345Z,29.83
2022-08-17T16:46:34.854Z,31.35
2022-08-17T16:49:10.979Z,29.25
2022-08-17T16:52:00.640Z,31.13
2022-08-17T16:54:33.042Z,29.00
2022-08-17T16:57:04.853Z,29.30
2022-08-17T16:59:41.868Z,28.60
2022-08-17T17:02:44.551Z,29.08
2022-08-17T17:05:26.213Z,24.50
2022-08-17T17:08:03.932Z,26.70
2022-08-17T17:10:40.614Z,28.75
2022-08-17T17:13:20.596Z,25.75
2022-08-17T17:15:56.972Z,27.67
2022-08-17T17:18:37.983Z,26.05
2022-08-17T17:21:14.849Z,27.10
2022-08-17T17:23:52.270Z,27.13
2022-08-17T17:26:45.973Z,29.02
2022-08-17T17:30:07.518Z,27.55
2022-08-17T17:32:48.086Z,30.05
2022-08-17T17:35:28.525Z,33.83
2022-08-17T17:38:03.687Z,32.58
2022-08-17T17:40:40.894Z,29.35
2022-08-17T17:43:37.694Z,34.47
2022-08-17T17:46:28.560Z,33.70
2022-08-17T17:49:00.938Z,31.70
2022-08-17T17:52:05.296Z,34.05
2022-08-17T17:54:58.657Z,33.40
2022-08-17T17:57:40.794Z,36.30
2022-08-17T18:00:15.833Z,34.00
2022-08-17T18:03:05.155Z,35.08
2022-08-17T18:06:09.761Z,32.15
2022-08-17T18:09:06.451Z,33.33
2022-08-17T18:11:53.275Z,28.95
2022-08-17T18:14:42.129Z,34.38
2022-08-17T18:17:21.731Z,33.15
2022-08-17T18:19:53.764Z,33.08
2022-08-17T18:22:24.730Z,32.65
2022-08-17T18:24:59.299Z,31.40
2022-08-17T18:27:36.154Z,34.25
2022-08-17T18:30:29.187Z,30.25
2022-08-17T18:33:24.266Z,35.47
2022-08-17T18:35:58.824Z,34.92
2022-08-17T18:38:35.427Z,34.97
2022-08-17T18:41:22.973Z,33.97
2022-08-17T18:44:18.161Z,32.55
2022-08-17T18:46:48.900Z,34.17
2022-08-17T18:49:30.652Z,33.90
2022-08-17T18:52:12.541Z,31.48
2022-08-17T18:55:09.116Z,32.25
2022-08-17T18:57:51.111Z,32.35
2022-08-17T19:00:39.055Z,32.55
2022-08-17T19:03:26.808Z,36.22
2022-08-17T19:06:00.458Z,35.67
2022-08-17T19:08:38.575Z,37.75
2022-08-17T19:11:19.255Z,32.90
2022-08-17T19:13:54.926Z,33.90
2022-08-17T19:16:37.048Z,36.00
2022-08-17T19:19:17.000Z,33.30
2022-08-17T19:21:53.231Z,38.28
2022-08-17T19:24:26.485Z,32.10
2022-08-17T19:27:06.205Z,36.25
2022-08-17T19:29:45.930Z,36.97
2022-08-17T19:32:22.166Z,33.97
2022-08-17T19:34:54.486Z,34.28
2022-08-17T19:37:34.046Z,36.65
2022-08-17T19:40:35.017Z,32.45
2022-08-17T19:43:16.056Z,33.40
2022-08-17T19:45:58.775Z,32.83
2022-08-17T19:48:47.496Z,35.95
2022-08-17T19:51:28.425Z,34.42
2022-08-17T19:54:15.759Z,38.67
2022-08-17T19:57:01.765Z,38.78
2022-08-17T19:59:49.474Z,34.63
2022-08-17T20:02:46.907Z,33.65
2022-08-17T20:05:37.275Z,36.53
2022-08-17T20:08:28.607Z,34.35
2022-08-17T20:11:03.004Z,32.72
2022-08-17T20:13:40.824Z,35.47
2022-08-17T20:16:14.044Z,34.78
2022-08-17T20:19:00.028Z,34.17
2022-08-17T20:21:38.548Z,39.28
2022-08-17T20:24:20.318Z,39.58
2022-08-17T20:26:58.851Z,37.60
2022-08-17T20:29:39.715Z,36.42
2022-08-17T20:32:28.715Z,35.42
2022-08-17T20:35:24.191Z,37.58
2022-08-17T20:38:07.589Z,38.30
2022-08-17T20:40:44.197Z,35.10
2022-08-17T20:43:52.275Z,44.80
2022-08-17T20:46:59.678Z,42.28
2022-08-17T20:49:48.526Z,41.33
2022-08-17T20:52:34.004Z,42.60
2022-08-17T20:55:09.906Z,40.03
2022-08-17T20:57:55.527Z,44.92
2022-08-17T21:00:46.191Z,51.28
2022-08-17T21:03:55.137Z,46.17
2022-08-17T21:06:32.718Z,49.03
2022-08-17T21:09:31.049Z,46.45
2022-08-17T21:12:05.679Z,54.17
2022-08-17T21:15:02.593Z,52.00
2022-08-17T21:17:45.213Z,52.25
2022-08-17T21:20:32.578Z,53.72
2022-08-17T21:23:22.044Z,58.85
2022-08-17T21:26:24.541Z,57.40
2022-08-17T21:29:29.670Z,53.28
2022-08-17T21:32:25.283Z,54.83
2022-08-17T21:35:38.832Z,52.38
2022-08-17T21:38:22.199Z,58.05
2022-08-17T21:40:57.099Z,57.08
2022-08-17T21:43:30.337Z,59.75
2022-08-17T21:46:29.747Z,56.97
2022-08-17T21:49:13.766Z,64.05
2022-08-17T21:51:54.105Z,65.75
2022-08-17T21:54:32.630Z,62.22
2022-08-17T21:57:03.718Z,56.53
2022-08-17T21:59:45.598Z,61.25
2022-08-17T22:02:22.923Z,56.72
2022-08-17T22:05:05.762Z,64.90
2022-08-17T22:07:41.891Z,57.00
2022-08-17T22:10:39.011Z,58.28
2022-08-17T22:13:17.394Z,57.40
2022-08-17T22:15:54.494Z,61.83
2022-08-17T22:18:32.297Z,58.92
2022-08-17T22:21:05.452Z,57.30
2022-08-17T22:23:54.992Z,57.13
2022-08-17T22:26:28.102Z,57.28
2022-08-17T22:29:07.350Z,57.05
2022-08-17T22:31:57.394Z,60.03
2022-08-17T22:34:28.469Z,59.47
2022-08-17T22:37:32.072Z,57.47
2022-08-17T22:40:02.614Z,61.53
2022-08-17T22:42:33.651Z,57.30
2022-08-17T22:45:03.646Z,61.47
2022-08-17T22:47:41.248Z,56.70
2022-08-17T22:50:31.021Z,62.87
2022-08-17T22:53:22.760Z,66.33
2022-08-17T22:56:11.819Z,63.70
2022-08-17T22:59:13.259Z,60.53
2022-08-17T23:01:45.670Z,67.13
2022-08-17T23:04:37.147Z,70.33
2022-08-17T23:07:09.438Z,67.87
2022-08-17T23:09:39.234Z,72.57
2022-08-17T23:12:16.153Z,72.77
2022-08-17T23:14:54.077Z,64.97
2022-08-17T23:17:26.010Z,70.33
2022-08-17T23:19:57.444Z,67.83
2022-08-17T23:22:28.281Z,68.80
2022-08-17T23:25:05.846Z,69.17
2022-08-17T23:27:37.299Z,65.63
2022-08-17T23:30:10.065Z,69.27
2022-08-17T23:32:53.557Z,68.63
2022-08-17T23:35:40.187Z,69.13
2022-08-17T23:38:13.912Z,71.60
2022-08-17T23:40:45.955Z,71.43
2022-08-17T23:43:28.150Z,73.90
2022-08-17T23:46:01.556Z,65.73
2022-08-17T23:48:35.378Z,69.10
2022-08-17T23:51:10.117Z,71.20
2022-08-17T23:53:47.764Z,70.83
2022-08-17T23:56:19.920Z,71.77
2022-08-17T23:58:52.215Z,74.93
